createdAt,value
2022-10-07T00:01:13.111Z,77.57
2022-10-07T00:03:42.169Z,77.50
2022-10-07T00:06:14.321Z,77.85
2022-10-07T00:08:44.673Z,77.73
2022-10-07T00:11:18.956Z,77.49
2022-10-07T00:13:49.458Z,77.76
2022-10-07T00:16:20.378Z,77.33
2022-10-07T00:18:49.271Z,77.41
2022-10-07T00:21:20.239Z,77.83
2022-10-07T00:23:49.363Z,77.51
2022-10-07T00:26:20.488Z,77.72
2022-10-07T00:28:50.098Z,77.71
2022-10-07T00:31:21.531Z,77.51
2022-10-07T00:33:50.849Z,77.70
2022-10-07T00:36:20.776Z,77.63
2022-10-07T00:38:51.687Z,77.73
2022-10-07T00:41:23.471Z,77.68
2022-10-07T00:43:51.922Z,77.63
2022-10-07T00:46:29.502Z,77.79
2022-10-07T00:49:00.341Z,77.80
2022-10-07T00:51:29.487Z,78.07
2022-10-07T00:53:58.292Z,78.07
2022-10-07T00:56:30.059Z,77.83
2022-10-07T00:59:00.132Z,77.76
2022-10-07T01:01:31.540Z,77.94
2022-10-07T01:04:00.021Z,78.12
2022-10-07T01:06:28.210Z,78.20
2022-10-07T01:08:57.661Z,77.69
2022-10-07T01:11:43.358Z,77.62
2022-10-07T01:14:16.790Z,77.81
2022-10-07T01:17:01.010Z,77.68
2022-10-07T01:19:52.957Z,77.51
2022-10-07T01:22:31.232Z,77.90
2022-10-07T01:25:16.128Z,78.16
2022-10-07T01:27:50.347Z,78.17
2022-10-07T01:30:20.645Z,78.26
2022-10-07T01:32:54.322Z,78.33
2022-10-07T01:35:26.590Z,78.55
2022-10-07T01:38:00.695Z,78.73
2022-10-07T01:40:35.937Z,78.95
2022-10-07T01:43:06.924Z,78.85
2022-10-07T01:45:40.751Z,79.00
2022-10-07T01:48:10.288Z,78.92
2022-10-07T01:50:40.391Z,78.68
2022-10-07T01:53:33.182Z,78.53
2022-10-07T01:56:20.125Z,78.23
2022-10-07T01:59:08.173Z,78.48
2022-10-07T02:01:48.333Z,78.58
2022-10-07T02:04:31.177Z,78.83
2022-10-07T02:07:09.242Z,78.59
2022-10-07T02:09:42.353Z,78.65
2022-10-07T02:12:19.444Z,78.85
2022-10-07T02:14:57.995Z,78.87
2022-10-07T02:17:29.238Z,79.11
2022-10-07T02:19:58.535Z,79.19
2022-10-07T02:22:30.375Z,79.22
2022-10-07T02:25:00.557Z,79.61
2022-10-07T02:27:35.283Z,79.11
2022-10-07T02:30:09.700Z,79.39
2022-10-07T02:32:40.574Z,79.49
2022-10-07T02:35:17.211Z,79.59
2022-10-07T02:37:49.352Z,80.02
2022-10-07T02:40:18.238Z,80.15
2022-10-07T02:42:55.089Z,80.07
2022-10-07T02:45:30.401Z,79.99
2022-10-07T02:48:04.814Z,80.10
2022-10-07T02:50:41.177Z,79.96
2022-10-07T02:53:13.738Z,79.83
2022-10-07T02:55:43.707Z,79.63
2022-10-07T02:58:14.303Z,79.59
2022-10-07T03:00:52.919Z,79.64
2022-10-07T03:03:22.317Z,79.71
2022-10-07T03:06:04.654Z,79.46
2022-10-07T03:08:33.550Z,79.80
2022-10-07T03:11:02.967Z,79.76
2022-10-07T03:13:32.367Z,80.08
2022-10-07T03:16:05.581Z,79.90
2022-10-07T03:18:34.578Z,80.14
2022-10-07T03:21:10.074Z,79.80
2022-10-07T03:23:39.403Z,80.01
2022-10-07T03:26:08.063Z,80.39
2022-10-07T03:28:37.470Z,80.20
2022-10-07T03:31:09.282Z,80.16
2022-10-07T03:33:40.750Z,80.55
2022-10-07T03:36:09.911Z,80.49
2022-10-07T03:38:40.554Z,80.38
2022-10-07T03:41:10.698Z,80.77
2022-10-07T03:43:40.105Z,80.49
2022-10-07T03:46:11.022Z,80.54
2022-10-07T03:48:40.261Z,80.64
2022-10-07T03:51:09.057Z,80.71
2022-10-07T03:53:40.617Z,80.86
2022-10-07T03:56:09.686Z,81.06
2022-10-07T03:58:39.844Z,81.23
2022-10-07T04:01:15.198Z,81.04
2022-10-07T04:03:50.561Z,81.47
2022-10-07T04:06:19.837Z,81.46
2022-10-07T04:08:53.127Z,81.52
2022-10-07T04:11:21.488Z,81.77
2022-10-07T04:13:52.254Z,81.87
2022-10-07T04:16:23.711Z,81.92
2022-10-07T04:18:55.916Z,81.64
2022-10-07T04:21:25.771Z,81.91
2022-10-07T04:23:54.237Z,82.05
2022-10-07T04:26:22.426Z,82.15
2022-10-07T04:28:51.220Z,81.69
2022-10-07T04:31:23.946Z,81.84
2022-10-07T04:34:03.596Z,81.83
2022-10-07T04:36:38.404Z,81.46
2022-10-07T04:39:13.488Z,81.75
2022-10-07T04:41:48.106Z,82.02
2022-10-07T04:44:21.311Z,81.87
2022-10-07T04:47:03.989Z,81.96
2022-10-07T04:49:32.677Z,81.98
2022-10-07T04:52:02.441Z,81.51
2022-10-07T04:54:35.370Z,81.78
2022-10-07T04:57:03.801Z,81.50
2022-10-07T04:59:34.396Z,81.57
2022-10-07T05:02:05.066Z,81.88
2022-10-07T05:04:37.179Z,81.92
2022-10-07T05:07:05.915Z,81.70
2022-10-07T05:09:35.858Z,81.60
2022-10-07T05:12:05.152Z,81.45
2022-10-07T05:14:34.230Z,81.07
2022-10-07T05:17:04.993Z,81.04
2022-10-07T05:19:36.867Z,81.54
2022-10-07T05:22:06.018Z,81.35
2022-10-07T05:24:34.593Z,81.47
2022-10-07T05:27:03.591Z,81.31
2022-10-07T05:29:31.779Z,81.31
2022-10-07T05:32:04.773Z,81.06
2022-10-07T05:34:35.692Z,80.92
2022-10-07T05:37:04.009Z,81.00
2022-10-07T05:39:32.898Z,81.20
2022-10-07T05:42:09.562Z,81.18
2022-10-07T05:44:43.857Z,81.18
2022-10-07T05:47:14.249Z,81.08
2022-10-07T05:49:44.345Z,80.63
2022-10-07T05:52:12.672Z,81.06
2022-10-07T05:54:43.314Z,80.93
2022-10-07T05:57:13.293Z,80.79
2022-10-07T05:59:44.162Z,80.80
2022-10-07T06:02:16.237Z,80.69
2022-10-07T06:04:48.837Z,80.90
2022-10-07T06:07:22.048Z,80.68
2022-10-07T06:10:11.126Z,80.60
2022-10-07T06:12:57.159Z,81.14
2022-10-07T06:15:25.502Z,81.10
2022-10-07T06:17:53.760Z,81.30
2022-10-07T06:20:24.654Z,81.68
2022-10-07T06:22:55.462Z,81.82
2022-10-07T06:25:24.722Z,81.82
2022-10-07T06:27:54.872Z,81.94
2022-10-07T06:30:25.484Z,82.03
2022-10-07T06:32:54.477Z,81.93
2022-10-07T06:35:24.794Z,82.17
2022-10-07T06:37:55.363Z,82.02
2022-10-07T06:40:23.599Z,82.25
2022-10-07T06:42:51.826Z,82.29
2022-10-07T06:45:32.605Z,82.22
2022-10-07T06:48:01.560Z,82.30
2022-10-07T06:50:32.493Z,82.33
2022-10-07T06:53:01.042Z,82.43
2022-10-07T06:55:32.972Z,82.27
2022-10-07T06:58:06.293Z,82.34
2022-10-07T07:00:38.530Z,82.37
2022-10-07T07:03:06.709Z,82.34
2022-10-07T07:05:43.015Z,82.44
2022-10-07T07:08:17.432Z,82.14
2022-10-07T07:10:46.495Z,82.03
2022-10-07T07:13:15.599Z,81.71
2022-10-07T07:15:43.868Z,82.09
2022-10-07T07:18:12.465Z,81.62
2022-10-07T07:20:42.901Z,81.50
2022-10-07T07:23:11.242Z,81.18
2022-10-07T07:25:46.025Z,80.97
2022-10-07T07:28:16.477Z,81.09
2022-10-07T07:30:44.822Z,80.81
2022-10-07T07:33:13.074Z,80.70
2022-10-07T07:35:43.686Z,81.19
2022-10-07T07:38:12.370Z,80.57
2022-10-07T07:40:41.115Z,80.40
2022-10-07T07:43:10.276Z,80.63
2022-10-07T07:45:39.121Z,80.75
2022-10-07T07:48:07.362Z,80.35
2022-10-07T07:50:37.287Z,80.22
2022-10-07T07:53:07.500Z,80.18
2022-10-07T07:55:35.674Z,80.54
2022-10-07T07:58:04.368Z,80.40
2022-10-07T08:00:35.265Z,80.81
2022-10-07T08:03:06.853Z,80.81
2022-10-07T08:05:36.063Z,80.06
2022-10-07T08:08:10.978Z,80.37
2022-10-07T08:10:40.301Z,80.44
2022-10-07T08:13:08.644Z,80.09
2022-10-07T08:15:37.500Z,79.92
2022-10-07T08:18:07.424Z,80.26
2022-10-07T08:20:37.131Z,79.66
2022-10-07T08:23:08.545Z,79.17
2022-10-07T08:25:37.223Z,77.49
2022-10-07T08:28:07.590Z,76.77
2022-10-07T08:30:35.987Z,76.70
2022-10-07T08:33:04.307Z,76.57
2022-10-07T08:35:32.483Z,76.14
2022-10-07T08:38:00.715Z,76.40
2022-10-07T08:40:30.677Z,74.57
2022-10-07T08:42:59.589Z,73.72
2022-10-07T08:45:32.791Z,73.16
2022-10-07T08:48:04.360Z,73.16
2022-10-07T08:50:42.632Z,74.54
2022-10-07T08:53:20.608Z,74.15
2022-10-07T08:55:54.012Z,74.26
2022-10-07T08:58:50.535Z,74.70
2022-10-07T09:01:32.242Z,74.89
2022-10-07T09:04:11.220Z,76.49
2022-10-07T09:06:43.711Z,73.60
2022-10-07T09:09:17.022Z,72.56
2022-10-07T09:11:49.306Z,72.54
2022-10-07T09:14:21.793Z,72.37
2022-10-07T09:16:52.217Z,72.42
2022-10-07T09:19:27.083Z,71.67
2022-10-07T09:21:58.749Z,72.15
2022-10-07T09:24:29.882Z,72.34
2022-10-07T09:27:02.203Z,73.18
2022-10-07T09:29:31.308Z,73.96
2022-10-07T09:31:59.794Z,74.67
2022-10-07T09:34:30.872Z,73.43
2022-10-07T09:37:21.257Z,73.28
2022-10-07T09:39:51.603Z,74.27
2022-10-07T09:42:35.018Z,74.36
2022-10-07T09:45:18.954Z,73.72
2022-10-07T09:47:52.609Z,73.70
2022-10-07T09:50:38.275Z,73.92
2022-10-07T09:53:17.824Z,74.26
2022-10-07T09:55:46.299Z,74.76
2022-10-07T09:58:22.655Z,75.15
2022-10-07T10:00:52.430Z,75.46
2022-10-07T10:03:21.877Z,75.43
2022-10-07T10:05:57.557Z,75.23
2022-10-07T10:08:29.449Z,75.65
2022-10-07T10:10:59.257Z,75.36
2022-10-07T10:13:32.825Z,75.45
2022-10-07T10:16:02.598Z,75.29
2022-10-07T10:18:39.559Z,75.99
2022-10-07T10:21:25.372Z,75.85
2022-10-07T10:23:55.569Z,76.34
2022-10-07T10:26:56.101Z,76.86
2022-10-07T10:29:50.720Z,76.55
2022-10-07T10:32:47.697Z,76.22
2022-10-07T10:35:20.195Z,74.56
2022-10-07T10:38:17.901Z,73.40
2022-10-07T10:40:52.898Z,73.13
2022-10-07T10:43:29.683Z,73.16
2022-10-07T10:46:22.032Z,72.97
2022-10-07T10:48:55.734Z,72.23
2022-10-07T10:51:42.742Z,71.18
2022-10-07T10:54:24.346Z,71.98
2022-10-07T10:56:58.469Z,72.07
2022-10-07T10:59:44.593Z,72.12
2022-10-07T11:02:32.858Z,72.14
2022-10-07T11:05:06.440Z,69.95
2022-10-07T11:07:40.481Z,69.99
2022-10-07T11:10:19.022Z,68.47
2022-10-07T11:12:51.201Z,69.10
2022-10-07T11:15:23.554Z,68.11
2022-10-07T11:17:55.754Z,68.07
2022-10-07T11:20:26.243Z,68.25
2022-10-07T11:23:04.497Z,68.55
2022-10-07T11:25:37.728Z,66.36
2022-10-07T11:28:16.004Z,65.40
2022-10-07T11:30:52.389Z,64.28
2022-10-07T11:33:28.879Z,64.08
2022-10-07T11:36:03.979Z,65.06
2022-10-07T11:38:35.348Z,65.71
2022-10-07T11:41:12.086Z,64.98
2022-10-07T11:43:46.400Z,64.68
2022-10-07T11:46:19.804Z,63.86
2022-10-07T11:48:53.902Z,62.91
2022-10-07T11:51:25.573Z,62.42
2022-10-07T11:53:57.543Z,61.11
2022-10-07T11:56:27.766Z,61.91
2022-10-07T11:59:01.979Z,62.31
2022-10-07T12:01:47.789Z,63.22
2022-10-07T12:04:46.733Z,63.79
2022-10-07T12:07:38.396Z,64.52
2022-10-07T12:10:22.113Z,64.33
2022-10-07T12:12:53.080Z,64.40
2022-10-07T12:15:34.102Z,62.97
2022-10-07T12:18:30.273Z,62.09
2022-10-07T12:21:15.264Z,62.68
2022-10-07T12:23:47.329Z,62.65
2022-10-07T12:26:52.239Z,60.44
2022-10-07T12:29:37.145Z,59.68
2022-10-07T12:32:05.910Z,61.08
2022-10-07T12:34:41.317Z,60.59
2022-10-07T12:37:46.362Z,60.46
2022-10-07T12:40:26.006Z,60.17
2022-10-07T12:43:01.789Z,60.30
2022-10-07T12:45:32.157Z,60.55
2022-10-07T12:48:02.627Z,60.55
2022-10-07T12:50:33.601Z,61.24
2022-10-07T12:53:04.731Z,60.69
2022-10-07T12:55:37.152Z,61.32
2022-10-07T12:58:33.673Z,62.36
2022-10-07T13:01:17.305Z,61.90
2022-10-07T13:04:16.773Z,60.52
2022-10-07T13:07:29.148Z,60.48
2022-10-07T13:10:24.542Z,60.54
2022-10-07T13:12:55.234Z,60.39
2022-10-07T13:15:32.760Z,58.84
2022-10-07T13:18:10.923Z,59.07
2022-10-07T13:20:52.029Z,58.96
2022-10-07T13:23:26.833Z,59.33
2022-10-07T13:25:59.719Z,58.53
2022-10-07T13:28:37.325Z,58.48
2022-10-07T13:31:21.395Z,58.19
2022-10-07T13:33:49.964Z,58.21
2022-10-07T13:36:21.520Z,58.63
2022-10-07T13:38:57.918Z,58.52
2022-10-07T13:41:30.440Z,58.49
2022-10-07T13:44:03.163Z,58.53
2022-10-07T13:46:34.546Z,58.48
2022-10-07T13:49:03.705Z,57.74
2022-10-07T13:51:34.917Z,58.13
2022-10-07T13:54:05.914Z,58.43
2022-10-07T13:56:40.830Z,58.41
2022-10-07T13:59:17.188Z,58.72
2022-10-07T14:01:47.559Z,58.37
2022-10-07T14:04:25.398Z,57.92
2022-10-07T14:07:00.082Z,57.59
2022-10-07T14:09:44.374Z,57.10
2022-10-07T14:12:17.297Z,58.11
2022-10-07T14:14:48.266Z,57.92
2022-10-07T14:17:24.822Z,59.32
2022-10-07T14:19:55.971Z,59.67
2022-10-07T14:22:31.617Z,59.62
2022-10-07T14:25:03.626Z,60.34
2022-10-07T14:27:42.257Z,60.54
2022-10-07T14:30:56.365Z,60.79
2022-10-07T14:33:59.491Z,60.92
2022-10-07T14:36:28.540Z,61.23
2022-10-07T14:39:04.045Z,60.28
2022-10-07T14:41:33.538Z,60.00
2022-10-07T14:44:04.076Z,60.15
2022-10-07T14:46:32.493Z,60.79
2022-10-07T14:49:00.870Z,60.74
2022-10-07T14:51:30.552Z,60.30
2022-10-07T14:54:06.627Z,60.37
2022-10-07T14:56:39.560Z,60.22
2022-10-07T14:59:15.707Z,60.62
2022-10-07T15:01:44.241Z,61.41
2022-10-07T15:04:12.612Z,60.77
2022-10-07T15:06:48.685Z,61.14
2022-10-07T15:09:19.777Z,61.18
2022-10-07T15:11:48.086Z,61.58
2022-10-07T15:14:17.732Z,61.82
2022-10-07T15:16:45.967Z,61.50
2022-10-07T15:19:15.299Z,61.19
2022-10-07T15:21:43.542Z,61.73
2022-10-07T15:24:12.929Z,62.50
2022-10-07T15:26:41.440Z,62.41
2022-10-07T15:29:10.084Z,62.61
2022-10-07T15:31:41.327Z,62.85
2022-10-07T15:34:09.612Z,63.36
2022-10-07T15:36:39.909Z,63.11
2022-10-07T15:39:11.906Z,62.55
2022-10-07T15:41:41.616Z,63.16
2022-10-07T15:44:16.195Z,62.97
2022-10-07T15:46:47.613Z,62.57
2022-10-07T15:49:17.117Z,62.65
2022-10-07T15:51:46.805Z,62.79
2022-10-07T15:54:15.276Z,62.98
2022-10-07T15:56:45.284Z,63.40
2022-10-07T15:59:14.506Z,63.45
2022-10-07T16:01:42.757Z,63.39
2022-10-07T16:04:15.336Z,63.19
2022-10-07T16:06:49.642Z,63.44
2022-10-07T16:09:17.998Z,63.82
2022-10-07T16:11:46.987Z,63.70
2022-10-07T16:14:15.724Z,63.77
2022-10-07T16:16:44.426Z,64.32
2022-10-07T16:19:15.209Z,64.26
2022-10-07T16:21:44.206Z,64.06
2022-10-07T16:24:16.421Z,64.59
2022-10-07T16:26:44.824Z,65.26
2022-10-07T16:29:32.815Z,65.08
2022-10-07T16:32:01.405Z,65.52
2022-10-07T16:34:31.245Z,65.69
2022-10-07T16:36:59.823Z,65.32
2022-10-07T16:39:28.077Z,65.26
2022-10-07T16:41:56.491Z,64.99
2022-10-07T16:44:24.900Z,65.12
2022-10-07T16:46:56.662Z,65.10
2022-10-07T16:49:27.565Z,65.50
2022-10-07T16:51:57.768Z,65.71
2022-10-07T16:54:26.168Z,66.04
2022-10-07T16:56:54.375Z,66.43
2022-10-07T16:59:24.549Z,66.79
2022-10-07T17:01:55.550Z,67.11
2022-10-07T17:04:25.152Z,67.43
2022-10-07T17:06:54.240Z,67.72
2022-10-07T17:09:24.882Z,68.04
2022-10-07T17:11:53.201Z,68.30
2022-10-07T17:14:23.815Z,68.49
2022-10-07T17:16:57.667Z,68.63
2022-10-07T17:19:27.259Z,68.94
2022-10-07T17:21:56.679Z,68.81
2022-10-07T17:24:26.397Z,68.98
2022-10-07T17:26:55.226Z,69.44
2022-10-07T17:29:25.944Z,69.66
2022-10-07T17:31:54.418Z,69.82
2022-10-07T17:34:23.667Z,70.01
2022-10-07T17:36:52.245Z,70.08
2022-10-07T17:39:20.739Z,70.62
2022-10-07T17:41:50.449Z,70.75
2022-10-07T17:44:19.100Z,70.69
2022-10-07T17:46:49.031Z,70.99
2022-10-07T17:49:17.470Z,71.09
2022-10-07T17:51:45.697Z,71.24
2022-10-07T17:54:14.951Z,71.75
2022-10-07T17:56:44.604Z,71.67
2022-10-07T17:59:14.803Z,71.83
2022-10-07T18:01:44.494Z,71.95
2022-10-07T18:04:15.612Z,72.07
2022-10-07T18:06:47.036Z,72.42
2022-10-07T18:09:18.767Z,72.16
2022-10-07T18:12:05.230Z,72.38
2022-10-07T18:14:54.088Z,72.72
2022-10-07T18:17:24.792Z,72.90
2022-10-07T18:19:53.764Z,73.16
2022-10-07T18:22:22.140Z,73.16
2022-10-07T18:24:50.679Z,73.34
2022-10-07T18:27:20.827Z,73.52
2022-10-07T18:29:50.482Z,73.54
2022-10-07T18:32:18.694Z,73.63
2022-10-07T18:34:47.603Z,73.91
2022-10-07T18:37:16.718Z,73.98
2022-10-07T18:39:44.972Z,74.14
2022-10-07T18:42:13.165Z,74.26
2022-10-07T18:44:41.426Z,74.30
2022-10-07T18:47:11.089Z,74.23
2022-10-07T18:49:39.275Z,74.47
2022-10-07T18:52:07.446Z,74.36
2022-10-07T18:54:35.617Z,74.20
2022-10-07T18:57:03.903Z,74.25
2022-10-07T18:59:32.097Z,74.35
2022-10-07T19:02:00.322Z,74.25
2022-10-07T19:04:30.305Z,74.12
2022-10-07T19:06:58.493Z,74.14
2022-10-07T19:09:26.662Z,74.21
2022-10-07T19:11:54.940Z,74.24
2022-10-07T19:14:25.912Z,74.46
2022-10-07T19:16:54.352Z,74.58
2022-10-07T19:19:24.086Z,74.58
2022-10-07T19:21:55.438Z,74.51
2022-10-07T19:24:45.617Z,74.62
2022-10-07T19:27:14.308Z,74.26
2022-10-07T19:29:42.449Z,74.56
2022-10-07T19:32:10.739Z,74.52
2022-10-07T19:34:39.009Z,74.68
2022-10-07T19:37:08.600Z,74.81
2022-10-07T19:39:37.034Z,74.46
2022-10-07T19:42:05.637Z,74.64
2022-10-07T19:44:34.379Z,74.47
2022-10-07T19:47:02.814Z,74.71
2022-10-07T19:49:31.014Z,74.68
2022-10-07T19:51:59.154Z,74.72
2022-10-07T19:54:30.502Z,74.70
2022-10-07T19:56:58.674Z,74.77
2022-10-07T19:59:26.879Z,74.83
2022-10-07T20:02:00.206Z,74.67
2022-10-07T20:04:29.291Z,74.71
2022-10-07T20:06:59.256Z,74.80
2022-10-07T20:09:28.841Z,74.84
2022-10-07T20:11:57.013Z,74.76
2022-10-07T20:14:25.257Z,75.09
2022-10-07T20:16:56.011Z,74.85
2022-10-07T20:19:24.145Z,74.83
2022-10-07T20:21:54.019Z,75.05
2022-10-07T20:24:22.224Z,74.95
2022-10-07T20:26:52.119Z,74.97
2022-10-07T20:29:25.162Z,75.16
2022-10-07T20:31:54.010Z,75.49
2022-10-07T20:34:22.442Z,75.45
2022-10-07T20:36:50.859Z,75.45
2022-10-07T20:39:37.950Z,75.65
2022-10-07T20:42:25.765Z,75.75
2022-10-07T20:44:55.058Z,75.74
2022-10-07T20:47:25.973Z,75.56
2022-10-07T20:49:56.584Z,75.84
2022-10-07T20:52:27.183Z,75.80
2022-10-07T20:54:55.866Z,75.78
2022-10-07T20:57:27.553Z,75.60
2022-10-07T20:59:56.294Z,75.67
2022-10-07T21:02:25.618Z,75.88
2022-10-07T21:04:53.842Z,76.04
2022-10-07T21:07:22.138Z,76.24
2022-10-07T21:09:50.337Z,76.21
2022-10-07T21:12:19.495Z,76.48
2022-10-07T21:14:49.905Z,76.50
2022-10-07T21:17:18.386Z,76.54
2022-10-07T21:19:46.883Z,76.50
2022-10-07T21:22:15.144Z,76.75
2022-10-07T21:24:43.333Z,76.66
2022-10-07T21:27:11.635Z,76.65
2022-10-07T21:29:41.215Z,76.75
2022-10-07T21:32:12.285Z,76.92
2022-10-07T21:34:40.745Z,77.23
2022-10-07T21:37:08.898Z,77.15
2022-10-07T21:39:38.339Z,77.71
2022-10-07T21:42:06.800Z,77.43
2022-10-07T21:44:35.618Z,77.60
2022-10-07T21:47:05.139Z,77.59
2022-10-07T21:49:34.776Z,77.62
2022-10-07T21:52:03.019Z,77.75
2022-10-07T21:54:31.457Z,77.70
2022-10-07T21:56:59.738Z,77.72
2022-10-07T21:59:27.950Z,77.49
2022-10-07T22:01:56.230Z,77.67
2022-10-07T22:04:25.012Z,77.60
2022-10-07T22:07:22.251Z,77.73
2022-10-07T22:09:53.230Z,77.89
2022-10-07T22:12:22.331Z,77.74
2022-10-07T22:14:50.645Z,78.11
2022-10-07T22:17:18.948Z,77.87
2022-10-07T22:19:47.157Z,77.86
2022-10-07T22:22:16.836Z,78.25
2022-10-07T22:24:45.005Z,78.32
2022-10-07T22:27:13.203Z,78.56
2022-10-07T22:29:41.404Z,78.61
2022-10-07T22:32:09.567Z,78.88
2022-10-07T22:34:55.452Z,78.54
2022-10-07T22:37:25.397Z,78.54
2022-10-07T22:39:53.910Z,78.59
2022-10-07T22:42:22.114Z,78.47
2022-10-07T22:44:50.343Z,78.23
2022-10-07T22:47:18.553Z,78.67
2022-10-07T22:49:50.182Z,78.34
2022-10-07T22:52:18.446Z,78.43
2022-10-07T22:54:47.988Z,78.37
2022-10-07T22:57:16.685Z,77.99
2022-10-07T22:59:44.829Z,77.91
2022-10-07T23:02:13.201Z,77.68
2022-10-07T23:04:41.449Z,77.65
2022-10-07T23:07:10.492Z,77.68
2022-10-07T23:09:38.689Z,77.48
2022-10-07T23:12:08.353Z,77.74
2022-10-07T23:14:36.685Z,77.62
2022-10-07T23:17:04.897Z,77.58
2022-10-07T23:19:33.173Z,77.89
2022-10-07T23:22:01.426Z,77.92
2022-10-07T23:24:29.559Z,77.70
2022-10-07T23:26:57.774Z,77.66
2022-10-07T23:29:30.054Z,77.38
2022-10-07T23:31:58.249Z,77.62
2022-10-07T23:34:27.468Z,77.45
2022-10-07T23:36:55.711Z,77.49
2022-10-07T23:39:24.280Z,77.85
2022-10-07T23:41:52.514Z,77.49
2022-10-07T23:44:23.071Z,77.28
2022-10-07T23:46:52.780Z,77.25
2022-10-07T23:49:21.095Z,77.42
2022-10-07T23:51:49.345Z,77.41
2022-10-07T23:54:17.681Z,77.41
2022-10-07T23:56:45.900Z,77.31
2022-10-07T23:59:14.531Z,77.11
